Intl Falls, Minnesota
Current Conditions -  °F | °C
As of 1:55 AM on Tuesday 27 Jan 2015 (Local Time) from KINL Reporting Station
Overcast Overcast  
Wind Chill: 18°   Ceiling: 800
Heat Index: 24°   Visibility: 10mi
Dew Point: 20°   Wind: 5mph
Humidity: 84%   Direction: 300°WNW
Pressure: 30.02"   Gusts: NA
Location:  48.5229°N, 93.3185°W
Report Text: KINL 270755Z AUTO 30004KT 10SM OVC008 M04/M07 A3002 RMK AO2 SLP184 T10441067
Loading
Personal Weather Stations






























Interactive Weather Map New forecast layout! Learn more

10-Day Weather Forecast

Advertisements
Track Severe Weather on mobile